createdAt,value
2018-11-04T00:02:05.625Z,1.80
2018-11-04T00:04:33.906Z,1.77
2018-11-04T00:07:02.201Z,1.63
2018-11-04T00:09:30.527Z,1.63
2018-11-04T00:11:58.819Z,1.90
2018-11-04T00:14:27.139Z,2.10
2018-11-04T00:16:55.425Z,2.07
2018-11-04T00:19:23.740Z,1.80
2018-11-04T00:21:52.033Z,1.60
2018-11-04T00:24:20.358Z,1.80
2018-11-04T00:26:48.677Z,1.73
2018-11-04T00:29:16.992Z,1.70
2018-11-04T00:31:45.437Z,1.80
2018-11-04T00:34:13.743Z,1.80
2018-11-04T00:36:42.066Z,1.70
2018-11-04T00:39:10.390Z,1.70
2018-11-04T00:41:38.717Z,1.63
2018-11-04T00:44:07.331Z,1.77
2018-11-04T00:46:35.629Z,1.40
2018-11-04T00:49:03.904Z,1.70
2018-11-04T00:51:32.235Z,1.90
2018-11-04T00:54:00.533Z,1.60
2018-11-04T00:56:28.823Z,1.70
2018-11-04T00:58:57.123Z,1.80
2018-11-04T01:01:25.488Z,1.90
2018-11-04T01:03:53.705Z,1.83
2018-11-04T01:06:22.627Z,2.00
2018-11-04T01:08:50.934Z,1.67
2018-11-04T01:11:19.225Z,1.67
2018-11-04T01:13:47.546Z,1.70
2018-11-04T01:16:15.845Z,1.70
2018-11-04T01:18:44.887Z,1.53
2018-11-04T01:21:13.211Z,1.80
2018-11-04T01:23:41.515Z,1.77
2018-11-04T01:26:09.809Z,1.70
2018-11-04T01:28:38.109Z,1.90
2018-11-04T01:31:06.401Z,1.80
2018-11-04T01:33:34.667Z,1.70
2018-11-04T01:36:02.963Z,1.77
2018-11-04T01:38:31.244Z,1.70
2018-11-04T01:40:59.545Z,1.80
2018-11-04T01:43:27.823Z,1.70
2018-11-04T01:45:56.114Z,1.80
2018-11-04T01:48:24.391Z,1.70
2018-11-04T01:50:52.681Z,1.87
2018-11-04T01:53:20.991Z,1.70
2018-11-04T01:55:49.270Z,1.80
2018-11-04T01:58:17.597Z,1.60
2018-11-04T02:00:45.886Z,1.70
2018-11-04T02:03:14.177Z,1.70
2018-11-04T02:05:42.473Z,1.80
2018-11-04T02:08:10.789Z,1.80
2018-11-04T02:10:39.085Z,1.70
2018-11-04T02:13:07.413Z,1.90
2018-11-04T02:15:35.745Z,1.60
2018-11-04T02:18:04.026Z,1.80
2018-11-04T02:20:32.333Z,1.40
2018-11-04T02:23:00.633Z,1.60
2018-11-04T02:25:28.945Z,1.90
2018-11-04T02:27:57.256Z,1.60
2018-11-04T02:30:25.549Z,1.90
2018-11-04T02:32:53.835Z,1.83
2018-11-04T02:35:22.137Z,1.93
2018-11-04T02:37:50.437Z,1.90
2018-11-04T02:40:18.715Z,1.70
2018-11-04T02:42:47.033Z,1.80
2018-11-04T02:45:15.421Z,2.00
2018-11-04T02:47:43.715Z,1.90
2018-11-04T02:50:12.024Z,1.80
2018-11-04T02:52:40.523Z,1.60
2018-11-04T02:55:09.170Z,1.70
2018-11-04T02:57:37.774Z,1.90
2018-11-04T03:00:08.614Z,1.70
2018-11-04T03:02:36.891Z,1.70
2018-11-04T03:05:06.143Z,1.93
2018-11-04T03:07:34.436Z,1.80
2018-11-04T03:10:02.724Z,1.90
2018-11-04T03:12:31.021Z,1.80
2018-11-04T03:14:59.298Z,1.83
2018-11-04T03:17:27.586Z,1.70
2018-11-04T03:19:55.865Z,1.90
2018-11-04T03:22:24.189Z,1.80
2018-11-04T03:24:52.491Z,1.90
2018-11-04T03:27:20.777Z,1.93
2018-11-04T03:29:49.057Z,1.60
2018-11-04T03:32:17.625Z,1.80
2018-11-04T03:34:45.979Z,1.83
2018-11-04T03:37:14.350Z,2.20
2018-11-04T03:39:42.661Z,1.77
2018-11-04T03:42:10.941Z,1.73
2018-11-04T03:44:39.237Z,2.10
2018-11-04T03:47:07.566Z,1.83
2018-11-04T03:49:35.845Z,2.00
2018-11-04T03:52:04.172Z,1.83
2018-11-04T03:54:32.450Z,1.80
2018-11-04T03:57:00.762Z,1.83
2018-11-04T03:59:29.049Z,2.10
2018-11-04T04:01:57.334Z,1.83
2018-11-04T04:04:25.610Z,1.80
2018-11-04T04:06:53.913Z,2.00
2018-11-04T04:09:22.210Z,1.97
2018-11-04T04:11:50.505Z,1.80
2018-11-04T04:14:18.821Z,1.90
2018-11-04T04:16:47.099Z,1.97
2018-11-04T04:19:15.393Z,1.70
2018-11-04T04:21:43.702Z,1.63
2018-11-04T04:24:12.010Z,1.80
2018-11-04T04:26:40.309Z,1.60
2018-11-04T04:29:11.255Z,1.70
2018-11-04T04:31:39.644Z,2.10
2018-11-04T04:34:07.957Z,2.00
2018-11-04T04:36:36.233Z,2.00
2018-11-04T04:39:07.151Z,1.70
2018-11-04T04:41:35.443Z,2.00
2018-11-04T04:44:03.729Z,1.53
2018-11-04T04:46:32.009Z,2.10
2018-11-04T04:49:00.306Z,2.30
2018-11-04T04:51:28.594Z,1.90
2018-11-04T04:53:56.940Z,2.00
2018-11-04T04:56:25.233Z,1.87
2018-11-04T04:58:53.518Z,1.80
2018-11-04T05:01:21.815Z,1.93
2018-11-04T05:03:50.116Z,1.90
2018-11-04T05:06:18.429Z,1.97
2018-11-04T05:08:46.701Z,1.83
2018-11-04T05:11:14.994Z,1.90
2018-11-04T05:13:43.300Z,1.90
2018-11-04T05:16:11.634Z,1.77
2018-11-04T05:18:40.085Z,1.80
2018-11-04T05:21:08.369Z,2.07
2018-11-04T05:23:36.665Z,1.80
2018-11-04T05:26:05.185Z,1.93
2018-11-04T05:28:33.473Z,1.70
2018-11-04T05:31:01.765Z,1.60
2018-11-04T05:33:30.084Z,1.80
2018-11-04T05:35:58.337Z,1.80
2018-11-04T05:38:26.749Z,2.00
2018-11-04T05:40:54.933Z,1.97
2018-11-04T05:43:23.215Z,1.80
2018-11-04T05:45:51.497Z,1.87
2018-11-04T05:48:19.793Z,1.80
2018-11-04T05:50:48.093Z,1.70
2018-11-04T05:53:16.401Z,1.80
2018-11-04T05:55:44.700Z,1.83
2018-11-04T05:58:12.999Z,1.90
2018-11-04T06:00:41.376Z,1.97
2018-11-04T06:03:09.672Z,1.80
2018-11-04T06:05:37.956Z,1.60
2018-11-04T06:08:06.318Z,1.70
2018-11-04T06:10:34.589Z,1.80
2018-11-04T06:13:02.884Z,1.87
2018-11-04T06:15:31.248Z,1.80
2018-11-04T06:17:59.546Z,1.90
2018-11-04T06:20:27.854Z,1.80
2018-11-04T06:22:56.168Z,1.70
2018-11-04T06:25:24.442Z,1.70
2018-11-04T06:27:52.712Z,2.20
2018-11-04T06:30:20.999Z,2.00
2018-11-04T06:32:49.302Z,1.90
2018-11-04T06:35:17.597Z,1.90
2018-11-04T06:37:45.900Z,1.83
2018-11-04T06:40:14.220Z,2.00
2018-11-04T06:42:42.509Z,1.90
2018-11-04T06:45:11.074Z,2.00
2018-11-04T06:47:39.809Z,1.97
2018-11-04T06:50:10.249Z,2.00
2018-11-04T06:52:38.557Z,1.73
2018-11-04T06:55:07.814Z,1.80
2018-11-04T06:57:37.085Z,1.60
2018-11-04T07:00:06.764Z,2.00
2018-11-04T07:02:35.050Z,1.93
2018-11-04T07:05:03.336Z,1.73
2018-11-04T07:07:31.626Z,1.93
2018-11-04T07:09:59.903Z,1.97
2018-11-04T07:12:28.433Z,1.90
2018-11-04T07:14:56.835Z,1.97
2018-11-04T07:17:25.121Z,2.00
2018-11-04T07:19:53.464Z,2.00
2018-11-04T07:22:21.742Z,2.00
2018-11-04T07:24:50.029Z,2.20
2018-11-04T07:27:18.330Z,2.10
2018-11-04T07:29:46.626Z,2.07
2018-11-04T07:32:14.993Z,2.43
2018-11-04T07:34:43.223Z,2.10
2018-11-04T07:37:11.508Z,2.00
2018-11-04T07:39:39.783Z,2.23
2018-11-04T07:42:08.059Z,2.27
2018-11-04T07:44:36.364Z,1.90
2018-11-04T07:47:04.912Z,2.13
2018-11-04T07:49:33.197Z,1.90
2018-11-04T07:52:01.535Z,2.30
2018-11-04T07:54:29.824Z,2.00
2018-11-04T07:56:58.226Z,2.10
2018-11-04T07:59:26.435Z,2.97
2018-11-04T08:01:54.723Z,4.20
2018-11-04T08:04:23.065Z,3.63
2018-11-04T08:06:51.332Z,5.67
2018-11-04T08:09:19.647Z,4.60
2018-11-04T08:11:47.932Z,3.43
2018-11-04T08:14:16.237Z,3.77
2018-11-04T08:16:44.534Z,3.53
2018-11-04T08:19:12.834Z,3.93
2018-11-04T08:21:41.132Z,3.93
2018-11-04T08:24:09.429Z,4.33
2018-11-04T08:26:37.740Z,3.67
2018-11-04T08:29:06.460Z,3.60
2018-11-04T08:31:34.759Z,3.43
2018-11-04T08:34:03.100Z,3.70
2018-11-04T08:36:31.416Z,3.60
2018-11-04T08:38:59.711Z,3.30
2018-11-04T08:41:28.146Z,3.30
2018-11-04T08:43:57.053Z,3.23
2018-11-04T08:46:25.345Z,3.30
2018-11-04T08:48:53.704Z,3.17
2018-11-04T08:51:22.011Z,3.47
2018-11-04T08:53:50.310Z,3.10
2018-11-04T08:56:18.678Z,3.40
2018-11-04T08:58:46.987Z,3.63
2018-11-04T09:01:15.325Z,3.17
2018-11-04T09:03:43.635Z,3.80
2018-11-04T09:06:11.953Z,4.20
2018-11-04T09:08:40.246Z,3.70
2018-11-04T09:13:36.039Z,3.27
2018-11-04T09:16:04.362Z,3.60
2018-11-04T09:18:32.637Z,3.50
2018-11-04T09:21:00.962Z,3.53
2018-11-04T09:23:29.854Z,3.73
2018-11-04T09:25:58.147Z,3.33
2018-11-04T09:28:26.454Z,3.43
2018-11-04T09:30:54.739Z,3.80
2018-11-04T09:33:23.060Z,4.33
2018-11-04T09:35:51.465Z,3.77
2018-11-04T09:38:19.651Z,3.80
2018-11-04T09:40:47.949Z,3.70
2018-11-04T09:43:16.260Z,3.77
2018-11-04T09:45:44.555Z,3.53
2018-11-04T09:48:12.871Z,3.40
2018-11-04T09:50:41.219Z,3.47
2018-11-04T09:53:09.507Z,3.77
2018-11-04T09:55:37.839Z,4.00
2018-11-04T09:58:06.160Z,4.10
2018-11-04T10:00:34.493Z,3.80
2018-11-04T10:03:02.792Z,4.50
2018-11-04T10:05:31.109Z,4.10
2018-11-04T10:07:59.404Z,4.10
2018-11-04T10:10:27.719Z,3.93
2018-11-04T10:12:56.037Z,3.73
2018-11-04T10:15:24.365Z,4.10
2018-11-04T10:17:52.632Z,4.00
2018-11-04T10:20:21.137Z,3.53
2018-11-04T10:22:50.136Z,3.77
2018-11-04T10:25:19.030Z,3.87
2018-11-04T10:27:47.347Z,4.30
2018-11-04T10:30:16.780Z,3.50
2018-11-04T10:32:45.764Z,4.07
2018-11-04T10:35:14.707Z,3.40
2018-11-04T10:37:43.355Z,3.60
2018-11-04T10:40:12.357Z,4.40
2018-11-04T10:42:40.643Z,3.63
2018-11-04T10:45:09.739Z,3.50
2018-11-04T10:47:38.071Z,3.87
2018-11-04T10:50:08.326Z,3.90
2018-11-04T10:52:36.673Z,3.73
2018-11-04T10:55:05.501Z,3.77
2018-11-04T10:57:33.845Z,3.57
2018-11-04T11:00:03.167Z,3.60
2018-11-04T11:02:31.583Z,3.23
2018-11-04T11:04:59.893Z,3.30
2018-11-04T11:07:28.245Z,3.47
2018-11-04T11:09:56.570Z,3.73
2018-11-04T11:12:24.925Z,3.60
2018-11-04T11:14:53.252Z,3.23
2018-11-04T11:17:21.611Z,3.40
2018-11-04T11:19:49.931Z,3.90
2018-11-04T11:22:18.207Z,3.00
2018-11-04T11:24:46.492Z,3.03
2018-11-04T11:27:14.803Z,3.07
2018-11-04T11:29:43.115Z,3.70
2018-11-04T11:32:11.461Z,3.50
2018-11-04T11:34:39.777Z,3.30
2018-11-04T11:37:08.090Z,3.40
2018-11-04T11:39:36.391Z,3.47
2018-11-04T11:42:04.689Z,3.70
2018-11-04T11:44:32.998Z,4.00
2018-11-04T11:47:01.292Z,3.97
2018-11-04T11:49:29.627Z,4.37
2018-11-04T11:51:57.926Z,4.87
2018-11-04T11:54:26.211Z,4.60
2018-11-04T11:56:54.530Z,5.37
2018-11-04T11:59:22.958Z,5.10
2018-11-04T12:01:51.247Z,5.20
2018-11-04T12:04:19.536Z,5.70
2018-11-04T12:06:47.855Z,5.63
2018-11-04T12:09:16.141Z,7.43
2018-11-04T12:11:44.682Z,6.77
2018-11-04T12:14:12.996Z,6.83
2018-11-04T12:16:41.336Z,7.20
2018-11-04T12:19:09.626Z,7.33
2018-11-04T12:21:37.943Z,6.30
2018-11-04T12:24:06.284Z,6.70
2018-11-04T12:26:34.601Z,7.47
2018-11-04T12:29:02.954Z,7.10
2018-11-04T12:31:31.254Z,6.90
2018-11-04T12:33:59.571Z,7.07
2018-11-04T12:36:27.882Z,6.80
2018-11-04T12:38:56.214Z,6.90
2018-11-04T12:41:24.581Z,7.23
2018-11-04T12:43:53.781Z,6.37
2018-11-04T12:46:22.099Z,7.57
2018-11-04T12:48:50.606Z,5.83
2018-11-04T12:51:18.934Z,6.70
2018-11-04T12:53:47.264Z,6.10
2018-11-04T12:56:15.638Z,6.10
2018-11-04T12:58:43.953Z,6.17
2018-11-04T13:01:12.253Z,5.57
2018-11-04T13:03:40.610Z,6.33
2018-11-04T13:06:08.954Z,5.27
2018-11-04T13:08:37.549Z,5.77
2018-11-04T13:11:05.952Z,5.87
2018-11-04T13:13:34.242Z,5.77
2018-11-04T13:16:02.543Z,5.47
2018-11-04T13:18:30.868Z,5.17
2018-11-04T13:20:59.179Z,4.57
2018-11-04T13:23:28.092Z,5.30
2018-11-04T13:25:56.404Z,5.50
2018-11-04T13:28:24.731Z,4.97
2018-11-04T13:30:53.070Z,5.17
2018-11-04T13:33:21.429Z,5.23
2018-11-04T13:35:49.794Z,4.90
2018-11-04T13:38:18.124Z,5.03
2018-11-04T13:40:46.941Z,5.47
2018-11-04T13:43:15.255Z,4.83
2018-11-04T13:45:43.578Z,5.00
2018-11-04T13:48:11.907Z,5.13
2018-11-04T13:50:40.233Z,4.47
2018-11-04T13:53:08.539Z,4.57
2018-11-04T13:55:43.232Z,4.70
2018-11-04T13:58:11.563Z,4.63
2018-11-04T14:00:39.919Z,5.00
2018-11-04T14:03:08.390Z,4.80
2018-11-04T14:05:36.583Z,4.53
2018-11-04T14:08:04.915Z,3.97
2018-11-04T14:10:33.468Z,4.50
2018-11-04T14:13:01.941Z,4.30
2018-11-04T14:15:30.083Z,4.80
2018-11-04T14:17:58.353Z,4.60
2018-11-04T14:20:26.705Z,5.03
2018-11-04T14:22:55.023Z,4.60
2018-11-04T14:25:23.335Z,4.80
2018-11-04T14:27:52.176Z,5.40
2018-11-04T14:30:20.485Z,5.33
2018-11-04T14:32:49.754Z,4.77
2018-11-04T14:35:18.065Z,4.80
2018-11-04T14:37:46.399Z,5.53
2018-11-04T14:40:15.558Z,4.93
2018-11-04T14:42:44.559Z,5.53
2018-11-04T14:45:14.158Z,5.73
2018-11-04T14:47:42.483Z,4.63
2018-11-04T14:50:14.701Z,4.63
2018-11-04T14:52:45.688Z,5.50
2018-11-04T14:55:14.058Z,5.00
2018-11-04T14:57:42.375Z,4.63
2018-11-04T15:00:13.195Z,4.70
2018-11-04T15:02:42.210Z,4.47
2018-11-04T15:05:11.231Z,4.60
2018-11-04T15:07:39.633Z,4.70
2018-11-04T15:10:11.347Z,4.40
2018-11-04T15:12:39.699Z,4.13
2018-11-04T15:15:10.277Z,4.67
2018-11-04T15:17:38.644Z,4.73
2018-11-04T15:20:07.611Z,4.43
2018-11-04T15:22:36.769Z,4.63
2018-11-04T15:25:06.262Z,3.97
2018-11-04T15:27:35.267Z,4.43
2018-11-04T15:30:03.855Z,4.33
2018-11-04T15:32:32.196Z,4.17
2018-11-04T15:35:00.541Z,3.90
2018-11-04T15:37:28.850Z,4.53
2018-11-04T15:39:57.177Z,4.43
2018-11-04T15:42:25.545Z,4.57
2018-11-04T15:44:54.705Z,4.20
2018-11-04T15:47:23.007Z,4.33
2018-11-04T15:49:51.297Z,4.53
2018-11-04T15:52:20.450Z,4.17
2018-11-04T15:54:48.824Z,4.23
2018-11-04T15:57:17.543Z,4.70
2018-11-04T15:59:46.006Z,4.03
2018-11-04T16:02:14.630Z,4.77
2018-11-04T16:04:45.075Z,4.70
2018-11-04T16:07:11.862Z,4.83
2018-11-04T16:09:40.195Z,5.00
2018-11-04T16:12:09.395Z,5.00
2018-11-04T16:14:37.810Z,4.90
2018-11-04T16:17:06.195Z,4.50
2018-11-04T16:19:34.552Z,4.90
2018-11-04T16:22:02.875Z,5.20
2018-11-04T16:24:31.423Z,6.20
2018-11-04T16:26:59.896Z,5.63
2018-11-04T16:29:28.858Z,6.30
2018-11-04T16:31:57.749Z,6.27
2018-11-04T16:34:26.026Z,6.30
2018-11-04T16:36:54.412Z,6.80
2018-11-04T16:39:22.800Z,7.67
2018-11-04T16:41:51.158Z,7.07
2018-11-04T16:44:19.817Z,7.53
2018-11-04T16:46:47.905Z,7.00
2018-11-04T16:49:16.619Z,7.10
2018-11-04T16:51:45.021Z,7.70
2018-11-04T16:54:13.387Z,8.10
2018-11-04T16:56:41.708Z,8.03
2018-11-04T16:59:10.042Z,6.83
2018-11-04T17:01:38.439Z,7.23
2018-11-04T17:04:06.835Z,6.83
2018-11-04T17:06:35.505Z,6.77
2018-11-04T17:09:04.888Z,7.73
2018-11-04T17:11:33.365Z,6.97
2018-11-04T17:14:02.482Z,7.10
2018-11-04T17:16:30.864Z,7.33
2018-11-04T17:18:59.233Z,6.70
2018-11-04T17:21:27.643Z,7.67
2018-11-04T17:23:56.104Z,6.53
2018-11-04T17:26:24.507Z,6.53
2018-11-04T17:28:52.934Z,7.07
2018-11-04T17:31:21.911Z,6.60
2018-11-04T17:33:50.314Z,6.40
2018-11-04T17:36:18.870Z,6.30
2018-11-04T17:38:47.263Z,5.80
2018-11-04T17:41:15.706Z,6.30
2018-11-04T17:43:44.086Z,5.63
2018-11-04T17:46:12.510Z,5.80
2018-11-04T17:48:40.903Z,6.00
2018-11-04T17:51:09.306Z,6.43
2018-11-04T17:53:37.768Z,5.90
2018-11-04T17:56:06.662Z,5.43
2018-11-04T17:58:35.053Z,5.50
2018-11-04T18:01:03.563Z,5.50
2018-11-04T18:03:33.115Z,5.60
2018-11-04T18:06:01.485Z,5.40
2018-11-04T18:08:29.879Z,5.57
2018-11-04T18:11:01.221Z,5.57
2018-11-04T18:13:29.824Z,5.37
2018-11-04T18:15:58.195Z,4.87
2018-11-04T18:18:27.253Z,5.33
2018-11-04T18:20:56.362Z,4.93
2018-11-04T18:23:24.776Z,5.30
2018-11-04T18:25:54.326Z,5.40
2018-11-04T18:28:23.279Z,4.67
2018-11-04T18:30:51.954Z,5.13
2018-11-04T18:33:20.391Z,4.77
2018-11-04T18:35:48.968Z,5.10
2018-11-04T18:38:17.475Z,4.53
2018-11-04T18:40:45.905Z,5.77
2018-11-04T18:43:14.284Z,4.83
2018-11-04T18:45:42.953Z,4.57
2018-11-04T18:48:11.745Z,4.90
2018-11-04T18:50:40.289Z,4.93
2018-11-04T18:53:08.680Z,5.10
2018-11-04T18:55:37.242Z,4.87
2018-11-04T18:58:06.316Z,4.83
2018-11-04T19:00:34.838Z,4.83
2018-11-04T19:03:03.272Z,4.60
2018-11-04T19:05:32.634Z,4.67
2018-11-04T19:08:01.019Z,4.50
2018-11-04T19:10:29.441Z,4.87
2018-11-04T19:12:58.157Z,4.50
2018-11-04T19:15:26.676Z,4.80
2018-11-04T19:17:55.127Z,4.80
2018-11-04T19:20:23.539Z,4.20
2018-11-04T19:22:52.056Z,4.37
2018-11-04T19:25:21.655Z,5.03
2018-11-04T19:27:50.355Z,4.57
2018-11-04T19:30:20.119Z,4.70
2018-11-04T19:32:50.739Z,4.60
2018-11-04T19:35:19.397Z,4.53
2018-11-04T19:37:47.983Z,4.20
2018-11-04T19:40:17.505Z,4.53
2018-11-04T19:42:45.930Z,4.30
2018-11-04T19:45:14.390Z,4.20
2018-11-04T19:47:42.797Z,4.40
2018-11-04T19:50:12.443Z,4.23
2018-11-04T19:52:41.021Z,4.33
2018-11-04T19:55:10.555Z,4.50
2018-11-04T19:57:39.077Z,4.40
2018-11-04T20:00:10.166Z,4.50
2018-11-04T20:02:39.537Z,4.03
2018-11-04T20:05:09.444Z,4.00
2018-11-04T20:07:37.788Z,4.10
2018-11-04T20:10:09.611Z,4.03
2018-11-04T20:12:43.402Z,4.30
2018-11-04T20:15:11.867Z,4.00
2018-11-04T20:17:40.467Z,4.00
2018-11-04T20:20:12.627Z,4.23
2018-11-04T20:22:41.398Z,4.27
2018-11-04T20:25:15.039Z,4.20
2018-11-04T20:27:44.590Z,4.37
2018-11-04T20:30:13.801Z,4.30
2018-11-04T20:32:47.733Z,4.03
2018-11-04T20:35:16.954Z,3.90
2018-11-04T20:37:46.261Z,4.20
2018-11-04T20:40:20.380Z,4.00
2018-11-04T20:42:49.731Z,4.20
2018-11-04T20:45:18.479Z,4.03
2018-11-04T20:47:52.255Z,3.97
2018-11-04T20:51:28.766Z,4.23
2018-11-04T20:53:57.219Z,3.70
2018-11-04T20:56:31.133Z,4.10
2018-11-04T20:58:59.619Z,3.83
2018-11-04T21:01:28.101Z,3.60
2018-11-04T21:03:56.911Z,4.10
2018-11-04T21:06:25.908Z,4.00
2018-11-04T21:08:54.390Z,4.10
2018-11-04T21:11:24.408Z,3.73
2018-11-04T21:13:52.922Z,3.50
2018-11-04T21:16:22.128Z,3.87
2018-11-04T21:18:50.630Z,4.10
2018-11-04T21:21:19.110Z,3.90
2018-11-04T21:23:47.480Z,3.70
2018-11-04T21:26:16.162Z,3.40
2018-11-04T21:28:44.783Z,3.77
2018-11-04T21:31:13.147Z,3.90
2018-11-04T21:33:41.437Z,3.33
2018-11-04T21:36:09.882Z,3.60
2018-11-04T21:38:39.119Z,3.87
2018-11-04T21:41:07.487Z,3.37
2018-11-04T21:43:36.159Z,4.10
2018-11-04T21:46:04.211Z,3.43
2018-11-04T21:48:32.545Z,3.67
2018-11-04T21:51:00.936Z,3.53
2018-11-04T21:53:29.553Z,3.30
2018-11-04T21:55:57.969Z,3.50
2018-11-04T21:58:26.244Z,4.00
2018-11-04T22:00:54.565Z,3.20
2018-11-04T22:03:23.022Z,3.50
2018-11-04T22:05:51.223Z,3.70
2018-11-04T22:08:19.705Z,3.20
2018-11-04T22:10:48.777Z,3.70
2018-11-04T22:13:17.098Z,3.57
2018-11-04T22:15:45.449Z,3.47
2018-11-04T22:18:13.767Z,3.33
2018-11-04T22:20:42.067Z,3.23
2018-11-04T22:23:10.402Z,3.60
2018-11-04T22:25:38.831Z,3.47
2018-11-04T22:28:07.181Z,3.00
2018-11-04T22:30:35.477Z,3.50
2018-11-04T22:33:03.769Z,3.30
2018-11-04T22:35:32.099Z,3.43
2018-11-04T22:38:00.405Z,3.13
2018-11-04T22:40:28.670Z,3.70
2018-11-04T22:42:56.981Z,3.10
2018-11-04T22:45:25.283Z,3.33
2018-11-04T22:47:53.622Z,3.40
2018-11-04T22:50:21.889Z,3.13
2018-11-04T22:52:50.308Z,2.77
2018-11-04T22:57:47.040Z,3.30
2018-11-04T23:00:20.736Z,3.50
2018-11-04T23:02:50.017Z,3.10
2018-11-04T23:05:23.619Z,3.20
2018-11-04T23:07:52.209Z,3.30
2018-11-04T23:10:20.505Z,3.27
2018-11-04T23:12:48.765Z,3.23
2018-11-04T23:15:17.065Z,3.10
2018-11-04T23:17:45.413Z,3.30
2018-11-04T23:20:13.712Z,3.07
2018-11-04T23:22:42.008Z,3.23
2018-11-04T23:25:12.094Z,3.10
2018-11-04T23:27:41.128Z,2.97
2018-11-04T23:30:11.359Z,3.33
2018-11-04T23:32:39.668Z,3.10
2018-11-04T23:35:08.411Z,3.33
2018-11-04T23:37:36.768Z,3.20
2018-11-04T23:40:05.489Z,3.00
2018-11-04T23:42:33.771Z,3.20
2018-11-04T23:45:02.073Z,3.00
2018-11-04T23:47:30.350Z,2.90
2018-11-04T23:49:58.657Z,3.00
2018-11-04T23:52:26.957Z,3.00
2018-11-04T23:54:55.240Z,2.90
2018-11-04T23:57:23.513Z,2.70
2018-11-04T23:59:51.830Z,2.80
